Hovedside
METAR-TAF:

METAR-TAF

Lufthavner :

lufthavn

Kahramanmaraş, Tyrkia

breddegrad: 37-32-20N, lengdegrad: 036-57-12E, høyde over havet: 525 m

Gjeldene værobservasjon

Denne rapporten ble laget for 1 time og 9 minutter siden, klokken 03:50 UTC
Vind 3 kt fra Sørøst, skiftende mellom Øst og Sør
Temperatur 17°C
Luftfuktighet 82%
Trykk 1014 hPa
Sikt 10 km eller mer
ingen skyer under 1500 m og ingen bygeskyer

METAR: LTCN 190350Z 14003KT 100V180 CAVOK 17/14 Q1014 NOSIG

Tid: 07:59 (04:59 UTC)

Varsel

Denne rapporten ble laget for 3 timer og 19 minutter siden, klokken 01:40 UTC
Varsel gyldig fra 19. klokken 03 UTC til 19. klokken 12 UTC
Vind 2 kt fra skiftende retning
Sikt 10 km eller mer
ingen skyer under 1500 m og ingen bygeskyer
Blir
fra 19. klokken 10 UTC til 19. klokken 12 UTC
Vind 15 kt fra Vest-nordvest

TAF: LTCN 190140Z 1903/1912 VRB02KT CAVOK BECMG 1910/1912 30015KT

Værobservasjoner og værvarsel for over 4000 flyplasser (METAR- og TAF-rapporter).

Tilgjengelige stasjoner er representert av de røde og gule prikkene på kartet.

Hold musepekeren over prikken for å se navnet på stasjonen.

Klikk så for å se værobservasjoner og -varsler.

For å forandre kartet kan du klikke på den grønne knappen med svart kryss for å zoome inn, på den grønne knappen med strek for å zoome ut, eller på de grønne pilene for å se tilstøtende kart.


METAR-TAF: